San Francisco, CA

3:11 PM PST on February 09, 2016 (GMT -0800)
NOS_NWLON | | Change Station
CLOSE
Current Station
Personal Weather Station
Location: San Francisco, CA
Elevation: 0 ft
Nearby Weather Stations
Active Advisory: Beach Hazard Statement Active Notice: Record Report

Elev 0 ft 37.81 °N, 122.46 °W | Updated 29 minutes ago

Mostly Cloudy
Mostly Cloudy
64.0 °F
Feels Like 64.0 °F
N
11.0
Wind Variable Wind from North
Gusts 13.0 mph

Today
High -- | Low -- °F
--% Chance of Precip.
Yesterday
High -- | Low -- °F
Precip. -- in
Pressure 30.14 in
Visibility 10.0 miles
Clouds Mostly Cloudy 20000 ft
Dew Point Not available.
Humidity Not available.
Rainfall in
Snow Depth Not available.
7:06 AM 5:41 PM
New Moon, 2% visible
METAR KSFO 092256Z 35005KT 10SM BKN200 18/11 A3014 RMK AO2 SLP205 T01830106
Pressure 30.14 in
Visibility 10.0 miles
Clouds Mostly Cloudy 20000 ft
Dew Point Not available.
Humidity Not available.
Rainfall in
Snow Depth Not available.
7:06 AM 5:41 PM
New Moon, 2% visible
METAR KSFO 092256Z 35005KT 10SM BKN200 18/11 A3014 RMK AO2 SLP205 T01830106

10-Day Weather Forecast

Almanac

Astronomy

Feb. 09, 2016 Rise Set
Actual Time
Civil Twilight
Nautical Twilight
Astronomical Twilight
Moon
Length of Visible Light
Length of Day
Tomorrow will be .
, % of the Moon is Illuminated

Today's Extremes

State Highs State Lows

Community

WunderPhotos

Upload Photos

1,891,728 photos uploaded!

WunderBlog® & News

Nearby

Air Quality

  Air Quality AQ Index Pollutant
Not available.

Snow Depth

Station Depth Elevation

Earthquake Activity

City Distance Mag. Time & Date
Minimum magnitude displayed is 2.5.

Coastal Water Temperatures

Place Temperature

Stations

Nearby Weather Stations

Station Location Temp. Windchill Dew Point Humidity Wind Precip. Elev Updated Type
                   

Watches & Warnings

Beach Hazard Statement
Issued: 12:48 PM PST Feb. 9, 2016 – National Weather Service

... Beach hazards statement remains in effect until 8 PM PST this
evening...

* waves... west to northwest swell 7 to 8 feet at 13 to 15
seconds. Offshore winds will allow for larger waves.

* Hazards... increased risk of rip currents and large shore
break.

* Timing... now through 8pm Tuesday.

* Location... coastline from Sonoma County south through Monterey
County.

Precautionary/preparedness actions...

A beach hazard statement for rip currents means that conditions
are present to support a heightened risk of strong rip currents.
Rip currents are typically more frequent and stronger in the
vicinity of jetties... inlets... and piers. Swimmers caught in a
rip current should swim parallel to the coast to escape the rip
current before trying to swim for shore. Swimmers should always
swim near a lifeguard.